sensor_id;sensor_type;location;lat;lon;timestamp;pressure;altitude;pressure_sealevel;temperature;humidity
68193;BME280;55012;47.562;18.414;2022-07-06T00:01:39;99972.25;;;15.52;100.00
68193;BME280;55012;47.562;18.414;2022-07-06T00:04:05;99962.50;;;15.51;100.00
68193;BME280;55012;47.562;18.414;2022-07-06T00:06:31;99951.59;;;15.51;100.00
68193;BME280;55012;47.562;18.414;2022-07-06T00:08:57;99959.34;;;15.49;100.00
68193;BME280;55012;47.562;18.414;2022-07-06T00:11:23;99973.34;;;15.48;100.00
68193;BME280;55012;47.562;18.414;2022-07-06T00:13:49;99976.41;;;15.46;100.00
68193;BME280;55012;47.562;18.414;2022-07-06T00:16:15;99983.75;;;15.42;100.00
68193;BME280;55012;47.562;18.414;2022-07-06T00:18:40;99982.53;;;15.39;100.00
68193;BME280;55012;47.562;18.414;2022-07-06T00:21:06;99995.72;;;15.37;100.00
68193;BME280;55012;47.562;18.414;2022-07-06T00:23:31;100004.25;;;15.36;100.00
68193;BME280;55012;47.562;18.414;2022-07-06T00:25:57;99993.34;;;15.36;100.00
68193;BME280;55012;47.562;18.414;2022-07-06T00:28:22;99994.94;;;15.37;100.00
68193;BME280;55012;47.562;18.414;2022-07-06T00:30:48;100003.47;;;15.35;100.00
68193;BME280;55012;47.562;18.414;2022-07-06T00:33:13;99992.56;;;15.35;100.00
68193;BME280;55012;47.562;18.414;2022-07-06T00:35:39;100008.56;;;15.37;100.00
68193;BME280;55012;47.562;18.414;2022-07-06T00:38:04;99998.44;;;15.37;100.00
68193;BME280;55012;47.562;18.414;2022-07-06T00:40:30;100003.47;;;15.35;100.00
68193;BME280;55012;47.562;18.414;2022-07-06T00:42:56;100003.84;;;15.34;100.00
68193;BME280;55012;47.562;18.414;2022-07-06T00:45:21;100009.28;;;15.34;100.00
68193;BME280;55012;47.562;18.414;2022-07-06T00:47:47;100001.13;;;15.34;100.00
68193;BME280;55012;47.562;18.414;2022-07-06T00:50:14;100002.69;;;15.35;100.00
68193;BME280;55012;47.562;18.414;2022-07-06T00:52:51;99989.84;;;15.35;100.00
68193;BME280;55012;47.562;18.414;2022-07-06T00:55:19;99988.69;;;15.36;100.00
68193;BME280;55012;47.562;18.414;2022-07-06T00:57:45;99985.59;;;15.38;100.00
68193;BME280;55012;47.562;18.414;2022-07-06T01:00:14;99989.47;;;15.37;100.00
68193;BME280;55012;47.562;18.414;2022-07-06T01:02:40;99991.00;;;15.34;100.00
68193;BME280;55012;47.562;18.414;2022-07-06T01:05:07;99987.13;;;15.35;100.00
68193;BME280;55012;47.562;18.414;2022-07-06T01:07:33;99994.16;;;15.36;100.00
68193;BME280;55012;47.562;18.414;2022-07-06T01:09:59;100004.69;;;15.38;100.00
68193;BME280;55012;47.562;18.414;2022-07-06T01:12:25;100002.41;;;15.40;100.00
68193;BME280;55012;47.562;18.414;2022-07-06T01:14:50;99986.84;;;15.40;100.00
68193;BME280;55012;47.562;18.414;2022-07-06T01:17:17;99953.34;;;15.40;100.00
68193;BME280;55012;47.562;18.414;2022-07-06T01:19:43;99971.97;;;15.38;100.00
68193;BME280;55012;47.562;18.414;2022-07-06T01:22:09;99963.00;;;15.37;100.00
68193;BME280;55012;47.562;18.414;2022-07-06T01:24:35;99979.72;;;15.36;100.00
68193;BME280;55012;47.562;18.414;2022-07-06T01:27:02;99964.94;;;15.37;100.00
68193;BME280;55012;47.562;18.414;2022-07-06T01:29:27;99964.53;;;15.35;100.00
68193;BME280;55012;47.562;18.414;2022-07-06T01:31:53;99970.41;;;15.37;100.00
68193;BME280;55012;47.562;18.414;2022-07-06T01:34:19;99956.75;;;15.37;100.00
68193;BME280;55012;47.562;18.414;2022-07-06T01:36:45;99937.31;;;15.38;100.00
68193;BME280;55012;47.562;18.414;2022-07-06T01:39:11;99947.00;;;15.36;100.00
68193;BME280;55012;47.562;18.414;2022-07-06T01:41:37;99938.41;;;15.34;100.00
68193;BME280;55012;47.562;18.414;2022-07-06T01:44:04;99947.75;;;15.33;100.00
68193;BME280;55012;47.562;18.414;2022-07-06T01:46:29;99948.09;;;15.31;100.00
68193;BME280;55012;47.562;18.414;2022-07-06T01:48:55;99934.03;;;15.29;100.00
68193;BME280;55012;47.562;18.414;2022-07-06T01:51:21;99936.25;;;15.24;100.00
68193;BME280;55012;47.562;18.414;2022-07-06T01:53:47;99926.78;;;15.17;100.00
68193;BME280;55012;47.562;18.414;2022-07-06T01:56:13;99936.03;;;15.13;100.00
68193;BME280;55012;47.562;18.414;2022-07-06T01:58:39;99935.19;;;15.09;100.00
68193;BME280;55012;47.562;18.414;2022-07-06T02:01:09;99945.19;;;15.05;100.00
68193;BME280;55012;47.562;18.414;2022-07-06T02:03:34;99942.41;;;15.01;100.00
68193;BME280;55012;47.562;18.414;2022-07-06T02:06:01;99958.25;;;14.96;100.00
68193;BME280;55012;47.562;18.414;2022-07-06T02:08:26;99957.81;;;14.94;100.00
68193;BME280;55012;47.562;18.414;2022-07-06T02:10:52;99974.53;;;14.92;100.00
68193;BME280;55012;47.562;18.414;2022-07-06T02:13:17;99959.59;;;14.86;100.00
68193;BME280;55012;47.562;18.414;2022-07-06T02:15:43;99964.25;;;14.85;100.00
68193;BME280;55012;47.562;18.414;2022-07-06T02:18:08;99959.94;;;14.84;100.00
68193;BME280;55012;47.562;18.414;2022-07-06T02:20:34;99961.00;;;14.80;100.00
68193;BME280;55012;47.562;18.414;2022-07-06T02:22:59;99961.38;;;14.78;100.00
68193;BME280;55012;47.562;18.414;2022-07-06T02:25:25;99956.28;;;14.77;100.00
68193;BME280;55012;47.562;18.414;2022-07-06T02:27:50;99962.50;;;14.77;100.00
68193;BME280;55012;47.562;18.414;2022-07-06T02:30:16;99952.75;;;14.76;100.00
68193;BME280;55012;47.562;18.414;2022-07-06T02:32:42;99968.31;;;14.76;100.00
68193;BME280;55012;47.562;18.414;2022-07-06T02:35:08;99956.28;;;14.77;100.00
68193;BME280;55012;47.562;18.414;2022-07-06T02:37:33;99968.31;;;14.76;100.00
68193;BME280;55012;47.562;18.414;2022-07-06T02:39:59;99960.94;;;14.76;100.00
68193;BME280;55012;47.562;18.414;2022-07-06T02:42:25;99964.81;;;14.75;100.00
68193;BME280;55012;47.562;18.414;2022-07-06T02:44:52;99958.13;;;14.73;100.00
68193;BME280;55012;47.562;18.414;2022-07-06T02:47:18;99942.50;;;14.70;100.00
68193;BME280;55012;47.562;18.414;2022-07-06T02:49:43;99944.38;;;14.66;100.00
68193;BME280;55012;47.562;18.414;2022-07-06T02:52:09;99955.94;;;14.63;100.00
68193;BME280;55012;47.562;18.414;2022-07-06T02:54:34;99951.22;;;14.59;100.00
68193;BME280;55012;47.562;18.414;2022-07-06T02:57:00;99960.91;;;14.57;100.00
68193;BME280;55012;47.562;18.414;2022-07-06T02:59:25;99949.13;;;14.53;100.00
68193;BME280;55012;47.562;18.414;2022-07-06T03:01:51;99937.00;;;14.50;100.00
68193;BME280;55012;47.562;18.414;2022-07-06T03:04:16;99951.78;;;14.49;100.00
68193;BME280;55012;47.562;18.414;2022-07-06T03:06:42;99966.06;;;14.46;100.00
68193;BME280;55012;47.562;18.414;2022-07-06T03:09:07;99957.13;;;14.46;100.00
68193;BME280;55012;47.562;18.414;2022-07-06T03:11:33;99954.28;;;14.42;100.00
68193;BME280;55012;47.562;18.414;2022-07-06T03:14:02;99955.75;;;14.40;100.00
68193;BME280;55012;47.562;18.414;2022-07-06T03:16:28;99943.66;;;14.37;100.00
68193;BME280;55012;47.562;18.414;2022-07-06T03:18:54;99955.69;;;14.36;100.00
68193;BME280;55012;47.562;18.414;2022-07-06T03:21:19;99959.56;;;14.35;100.00
68193;BME280;55012;47.562;18.414;2022-07-06T03:23:45;99956.84;;;14.35;100.00
68193;BME280;55012;47.562;18.414;2022-07-06T03:26:10;99956.84;;;14.35;100.00
68193;BME280;55012;47.562;18.414;2022-07-06T03:28:36;99965.00;;;14.35;100.00
68193;BME280;55012;47.562;18.414;2022-07-06T03:31:01;99965.00;;;14.35;100.00
68193;BME280;55012;47.562;18.414;2022-07-06T03:33:26;99976.69;;;14.36;100.00
68193;BME280;55012;47.562;18.414;2022-07-06T03:35:52;99958.41;;;14.36;100.00
68193;BME280;55012;47.562;18.414;2022-07-06T03:38:17;99948.25;;;14.33;100.00
68193;BME280;55012;47.562;18.414;2022-07-06T03:40:43;99999.50;;;14.31;100.00
68193;BME280;55012;47.562;18.414;2022-07-06T03:43:08;100015.50;;;14.32;100.00
68193;BME280;55012;47.562;18.414;2022-07-06T03:45:34;100020.16;;;14.32;100.00
68193;BME280;55012;47.562;18.414;2022-07-06T03:47:59;100006.53;;;14.32;100.00
68193;BME280;55012;47.562;18.414;2022-07-06T03:50:25;100010.06;;;14.32;100.00
68193;BME280;55012;47.562;18.414;2022-07-06T03:52:50;100007.84;;;14.38;100.00
68193;BME280;55012;47.562;18.414;2022-07-06T03:55:16;100011.09;;;14.75;100.00
68193;BME280;55012;47.562;18.414;2022-07-06T03:57:42;100006.56;;;15.34;100.00
68193;BME280;55012;47.562;18.414;2022-07-06T04:00:08;100010.34;;;16.07;100.00
68193;BME280;55012;47.562;18.414;2022-07-06T04:02:34;99966.47;;;16.19;100.00
68193;BME280;55012;47.562;18.414;2022-07-06T04:04:59;99907.88;;;16.89;100.00
68193;BME280;55012;47.562;18.414;2022-07-06T04:07:25;99797.22;;;17.12;100.00
68193;BME280;55012;47.562;18.414;2022-07-06T04:09:51;99694.88;;;17.06;100.00
68193;BME280;55012;47.562;18.414;2022-07-06T04:12:16;99641.78;;;17.07;100.00
68193;BME280;55012;47.562;18.414;2022-07-06T04:14:42;99589.09;;;16.66;100.00
68193;BME280;55012;47.562;18.414;2022-07-06T04:17:08;99576.38;;;16.44;100.00
68193;BME280;55012;47.562;18.414;2022-07-06T04:19:51;99557.81;;;16.19;100.00
68193;BME280;55012;47.562;18.414;2022-07-06T04:22:17;99554.50;;;15.99;100.00
68193;BME280;55012;47.562;18.414;2022-07-06T04:24:42;99575.97;;;15.71;100.00
68193;BME280;55012;47.562;18.414;2022-07-06T04:27:08;99594.75;;;15.50;100.00
68193;BME280;55012;47.562;18.414;2022-07-06T04:29:33;99619.09;;;15.35;100.00
68193;BME280;55012;47.562;18.414;2022-07-06T04:31:59;99645.66;;;15.15;100.00
68193;BME280;55012;47.562;18.414;2022-07-06T04:34:24;99673.63;;;15.12;100.00
68193;BME280;55012;47.562;18.414;2022-07-06T04:36:50;99691.44;;;15.06;100.00
68193;BME280;55012;47.562;18.414;2022-07-06T04:39:15;99712.38;;;15.02;100.00
68193;BME280;55012;47.562;18.414;2022-07-06T04:41:41;99743.94;;;15.03;100.00
68193;BME280;55012;47.562;18.414;2022-07-06T04:44:06;99750.16;;;15.04;100.00
68193;BME280;55012;47.562;18.414;2022-07-06T04:46:31;99769.78;;;15.13;100.00
68193;BME280;55012;47.562;18.414;2022-07-06T04:48:57;99769.50;;;15.18;100.00
68193;BME280;55012;47.562;18.414;2022-07-06T04:51:22;99785.19;;;15.25;100.00
68193;BME280;55012;47.562;18.414;2022-07-06T04:53:48;99792.63;;;15.28;100.00
68193;BME280;55012;47.562;18.414;2022-07-06T04:56:13;99792.28;;;15.29;100.00
68193;BME280;55012;47.562;18.414;2022-07-06T04:58:39;99802.03;;;15.30;100.00
68193;BME280;55012;47.562;18.414;2022-07-06T05:01:04;99785.66;;;15.30;100.00
68193;BME280;55012;47.562;18.414;2022-07-06T05:03:30;99792.00;;;15.34;100.00
68193;BME280;55012;47.562;18.414;2022-07-06T05:05:55;99807.25;;;15.39;100.00
68193;BME280;55012;47.562;18.414;2022-07-06T05:08:21;99785.13;;;15.44;100.00
68193;BME280;55012;47.562;18.414;2022-07-06T05:10:48;99778.59;;;15.49;100.00
68193;BME280;55012;47.562;18.414;2022-07-06T05:13:14;99777.56;;;15.57;100.00
68193;BME280;55012;47.562;18.414;2022-07-06T05:15:39;99795.28;;;15.66;100.00
68193;BME280;55012;47.562;18.414;2022-07-06T05:18:04;99745.81;;;15.68;100.00
68193;BME280;55012;47.562;18.414;2022-07-06T05:20:30;99763.09;;;15.76;100.00
68193;BME280;55012;47.562;18.414;2022-07-06T05:22:55;99737.06;;;15.82;100.00
68193;BME280;55012;47.562;18.414;2022-07-06T05:25:21;99741.50;;;15.93;100.00
68193;BME280;55012;47.562;18.414;2022-07-06T05:27:47;99732.69;;;16.04;100.00
68193;BME280;55012;47.562;18.414;2022-07-06T05:30:12;99757.34;;;16.11;100.00
68193;BME280;55012;47.562;18.414;2022-07-06T05:32:38;99752.38;;;16.16;100.00
68193;BME280;55012;47.562;18.414;2022-07-06T05:35:04;99714.56;;;16.18;100.00
68193;BME280;55012;47.562;18.414;2022-07-06T05:37:30;99700.22;;;16.25;100.00
68193;BME280;55012;47.562;18.414;2022-07-06T05:39:55;99694.78;;;16.28;100.00
68193;BME280;55012;47.562;18.414;2022-07-06T05:42:20;99723.66;;;16.29;100.00
68193;BME280;55012;47.562;18.414;2022-07-06T05:44:46;99683.56;;;16.34;100.00
68193;BME280;55012;47.562;18.414;2022-07-06T05:47:11;99666.84;;;16.39;100.00
68193;BME280;55012;47.562;18.414;2022-07-06T05:49:55;99690.75;;;16.49;100.00
68193;BME280;55012;47.562;18.414;2022-07-06T05:52:43;99674.06;;;16.57;100.00
68193;BME280;55012;47.562;18.414;2022-07-06T05:55:13;99657.75;;;16.65;100.00
68193;BME280;55012;47.562;18.414;2022-07-06T05:57:39;99648.84;;;16.71;100.00
68193;BME280;55012;47.562;18.414;2022-07-06T06:00:08;99652.50;;;16.82;100.00
68193;BME280;55012;47.562;18.414;2022-07-06T06:02:40;99661.53;;;16.90;100.00
68193;BME280;55012;47.562;18.414;2022-07-06T06:05:08;99636.19;;;16.93;100.00
68193;BME280;55012;47.562;18.414;2022-07-06T06:07:35;99615.94;;;17.01;100.00
68193;BME280;55012;47.562;18.414;2022-07-06T06:10:05;99595.72;;;17.09;100.00
68193;BME280;55012;47.562;18.414;2022-07-06T06:12:32;99607.91;;;17.23;100.00
68193;BME280;55012;47.562;18.414;2022-07-06T06:14:57;99576.34;;;17.32;100.00
68193;BME280;55012;47.562;18.414;2022-07-06T06:17:23;99580.25;;;17.35;100.00
68193;BME280;55012;47.562;18.414;2022-07-06T06:19:48;99564.22;;;17.33;100.00
68193;BME280;55012;47.562;18.414;2022-07-06T06:22:14;99511.91;;;17.38;100.00
68193;BME280;55012;47.562;18.414;2022-07-06T06:24:39;99533.41;;;17.44;100.00
68193;BME280;55012;47.562;18.414;2022-07-06T06:27:05;99506.09;;;17.51;100.00
68193;BME280;55012;47.562;18.414;2022-07-06T06:29:30;99485.41;;;17.60;100.00
68193;BME280;55012;47.562;18.414;2022-07-06T06:31:56;99481.94;;;17.67;100.00
68193;BME280;55012;47.562;18.414;2022-07-06T06:34:21;99397.56;;;17.73;100.00
68193;BME280;55012;47.562;18.414;2022-07-06T06:36:47;99404.59;;;17.81;100.00
68193;BME280;55012;47.562;18.414;2022-07-06T06:39:12;99392.09;;;17.90;100.00
68193;BME280;55012;47.562;18.414;2022-07-06T06:41:38;99335.38;;;17.94;100.00
68193;BME280;55012;47.562;18.414;2022-07-06T06:44:03;99306.84;;;18.03;100.00
68193;BME280;55012;47.562;18.414;2022-07-06T06:46:29;99345.56;;;18.15;100.00
68193;BME280;55012;47.562;18.414;2022-07-06T06:48:54;99276.28;;;18.25;100.00
68193;BME280;55012;47.562;18.414;2022-07-06T06:51:20;99241.84;;;18.28;100.00
68193;BME280;55012;47.562;18.414;2022-07-06T06:53:46;99198.41;;;18.37;100.00
68193;BME280;55012;47.562;18.414;2022-07-06T06:56:12;99160.81;;;18.41;100.00
68193;BME280;55012;47.562;18.414;2022-07-06T06:58:38;99138.09;;;18.44;100.00
68193;BME280;55012;47.562;18.414;2022-07-06T07:01:03;99095.41;;;18.50;100.00
68193;BME280;55012;47.562;18.414;2022-07-06T07:03:30;99100.03;;;18.64;100.00
68193;BME280;55012;47.562;18.414;2022-07-06T07:05:55;99065.13;;;18.75;100.00
68193;BME280;55012;47.562;18.414;2022-07-06T07:08:21;99043.09;;;18.86;100.00
68193;BME280;55012;47.562;18.414;2022-07-06T07:10:46;99033.97;;;19.00;100.00
68193;BME280;55012;47.562;18.414;2022-07-06T07:13:12;99008.84;;;19.08;100.00
68193;BME280;55012;47.562;18.414;2022-07-06T07:15:37;98967.19;;;19.21;100.00
68193;BME280;55012;47.562;18.414;2022-07-06T07:18:03;98942.03;;;19.26;100.00
68193;BME280;55012;47.562;18.414;2022-07-06T07:20:29;98859.41;;;19.24;100.00
68193;BME280;55012;47.562;18.414;2022-07-06T07:22:55;98842.53;;;19.25;100.00
68193;BME280;55012;47.562;18.414;2022-07-06T07:25:21;98843.31;;;19.26;100.00
68193;BME280;55012;47.562;18.414;2022-07-06T07:27:46;98807.63;;;19.29;100.00
68193;BME280;55012;47.562;18.414;2022-07-06T07:30:12;98743.72;;;19.32;100.00
68193;BME280;55012;47.562;18.414;2022-07-06T07:32:37;98756.06;;;19.44;100.00
68193;BME280;55012;47.562;18.414;2022-07-06T07:35:06;98711.66;;;19.53;100.00
68193;BME280;55012;47.562;18.414;2022-07-06T07:37:31;98652.81;;;19.57;100.00
68193;BME280;55012;47.562;18.414;2022-07-06T07:39:57;98612.28;;;19.65;100.00
68193;BME280;55012;47.562;18.414;2022-07-06T07:42:22;98615.53;;;19.80;100.00
68193;BME280;55012;47.562;18.414;2022-07-06T07:44:48;98583.16;;;19.91;100.00
68193;BME280;55012;47.562;18.414;2022-07-06T07:47:13;98567.38;;;20.15;100.00
68193;BME280;55012;47.562;18.414;2022-07-06T07:49:39;98512.19;;;20.26;100.00
68193;BME280;55012;47.562;18.414;2022-07-06T07:52:05;98446.63;;;20.28;100.00
68193;BME280;55012;47.562;18.414;2022-07-06T07:54:30;98405.94;;;20.39;100.00
68193;BME280;55012;47.562;18.414;2022-07-06T07:56:56;98397.00;;;20.51;100.00
68193;BME280;55012;47.562;18.414;2022-07-06T07:59:22;98362.66;;;20.59;100.00
68193;BME280;55012;47.562;18.414;2022-07-06T08:01:47;98334.31;;;20.62;100.00
68193;BME280;55012;47.562;18.414;2022-07-06T08:04:13;98294.88;;;20.69;100.00
68193;BME280;55012;47.562;18.414;2022-07-06T08:06:38;98306.56;;;20.86;100.00
68193;BME280;55012;47.562;18.414;2022-07-06T08:09:04;98271.38;;;20.93;100.00
68193;BME280;55012;47.562;18.414;2022-07-06T08:11:33;98239.38;;;20.87;100.00
68193;BME280;55012;47.562;18.414;2022-07-06T08:13:58;98275.19;;;20.70;100.00
68193;BME280;55012;47.562;18.414;2022-07-06T08:16:24;98301.22;;;20.66;100.00
68193;BME280;55012;47.562;18.414;2022-07-06T08:18:49;98310.88;;;20.58;100.00
68193;BME280;55012;47.562;18.414;2022-07-06T08:21:16;98302.41;;;20.52;100.00
68193;BME280;55012;47.562;18.414;2022-07-06T08:23:43;98337.44;;;20.48;100.00
68193;BME280;55012;47.562;18.414;2022-07-06T08:26:08;98270.66;;;20.35;100.00
68193;BME280;55012;47.562;18.414;2022-07-06T08:28:34;98325.25;;;20.33;100.00
68193;BME280;55012;47.562;18.414;2022-07-06T08:30:59;98339.69;;;20.37;100.00
68193;BME280;55012;47.562;18.414;2022-07-06T08:33:24;98356.22;;;20.50;100.00
68193;BME280;55012;47.562;18.414;2022-07-06T08:35:50;98340.88;;;20.52;100.00
68193;BME280;55012;47.562;18.414;2022-07-06T08:38:16;98319.13;;;20.58;100.00
68193;BME280;55012;47.562;18.414;2022-07-06T08:40:43;98315.59;;;20.57;100.00
68193;BME280;55012;47.562;18.414;2022-07-06T08:43:11;98287.59;;;20.62;100.00
68193;BME280;55012;47.562;18.414;2022-07-06T08:45:41;98244.63;;;20.68;100.00
68193;BME280;55012;47.562;18.414;2022-07-06T08:48:10;98228.03;;;20.72;100.00
68193;BME280;55012;47.562;18.414;2022-07-06T08:50:36;98252.47;;;20.83;100.00
68193;BME280;55012;47.562;18.414;2022-07-06T08:53:03;98240.38;;;20.93;100.00
68193;BME280;55012;47.562;18.414;2022-07-06T08:55:29;98218.28;;;20.96;100.00
68193;BME280;55012;47.562;18.414;2022-07-06T08:57:55;98194.09;;;21.04;100.00
68193;BME280;55012;47.562;18.414;2022-07-06T09:00:24;98147.44;;;21.13;100.00
68193;BME280;55012;47.562;18.414;2022-07-06T09:02:51;98203.13;;;21.30;100.00
68193;BME280;55012;47.562;18.414;2022-07-06T09:05:21;98138.31;;;21.29;100.00
68193;BME280;55012;47.562;18.414;2022-07-06T09:07:49;98130.91;;;21.39;100.00
68193;BME280;55012;47.562;18.414;2022-07-06T09:10:17;98109.97;;;21.54;100.00
68193;BME280;55012;47.562;18.414;2022-07-06T09:12:43;97972.53;;;21.59;100.00
68193;BME280;55012;47.562;18.414;2022-07-06T09:15:09;97953.34;;;21.69;100.00
68193;BME280;55012;47.562;18.414;2022-07-06T09:17:38;97953.56;;;21.83;100.00
68193;BME280;55012;47.562;18.414;2022-07-06T09:20:09;97867.31;;;21.86;100.00
68193;BME280;55012;47.562;18.414;2022-07-06T09:22:36;97759.50;;;21.88;100.00
68193;BME280;55012;47.562;18.414;2022-07-06T09:25:11;97791.19;;;22.02;100.00
68193;BME280;55012;47.562;18.414;2022-07-06T09:27:41;97735.38;;;22.10;100.00
68193;BME280;55012;47.562;18.414;2022-07-06T09:30:10;97722.19;;;22.24;100.00
68193;BME280;55012;47.562;18.414;2022-07-06T09:32:41;97691.13;;;22.32;100.00
68193;BME280;55012;47.562;18.414;2022-07-06T09:35:07;97663.72;;;22.38;100.00
68193;BME280;55012;47.562;18.414;2022-07-06T09:37:33;97675.66;;;22.53;100.00
68193;BME280;55012;47.562;18.414;2022-07-06T09:39:58;97555.44;;;22.56;100.00
68193;BME280;55012;47.562;18.414;2022-07-06T09:42:25;97733.97;;;22.61;100.00
68193;BME280;55012;47.562;18.414;2022-07-06T09:44:52;97684.19;;;22.64;100.00
68193;BME280;55012;47.562;18.414;2022-07-06T09:47:18;97615.06;;;22.77;100.00
68193;BME280;55012;47.562;18.414;2022-07-06T09:49:45;97727.94;;;22.81;100.00
68193;BME280;55012;47.562;18.414;2022-07-06T09:52:11;97742.78;;;22.83;100.00
68193;BME280;55012;47.562;18.414;2022-07-06T09:54:38;97680.59;;;22.91;100.00
68193;BME280;55012;47.562;18.414;2022-07-06T09:57:05;97733.88;;;22.97;100.00
68193;BME280;55012;47.562;18.414;2022-07-06T09:59:31;97753.06;;;23.01;100.00
68193;BME280;55012;47.562;18.414;2022-07-06T10:01:59;97755.88;;;23.16;100.00
68193;BME280;55012;47.562;18.414;2022-07-06T10:04:27;97840.44;;;23.37;100.00
68193;BME280;55012;47.562;18.414;2022-07-06T10:06:53;98130.81;;;23.41;100.00
68193;BME280;55012;47.562;18.414;2022-07-06T10:09:21;98348.25;;;23.37;100.00
68193;BME280;55012;47.562;18.414;2022-07-06T10:12:00;98286.63;;;23.40;100.00
68193;BME280;55012;47.562;18.414;2022-07-06T10:14:31;98383.69;;;23.39;100.00
68193;BME280;55012;47.562;18.414;2022-07-06T10:16:58;98435.94;;;23.33;100.00
68193;BME280;55012;47.562;18.414;2022-07-06T10:19:27;98410.72;;;23.44;100.00
68193;BME280;55012;47.562;18.414;2022-07-06T10:21:53;98388.78;;;23.49;100.00
68193;BME280;55012;47.562;18.414;2022-07-06T10:24:20;98441.38;;;23.68;100.00
68193;BME280;55012;47.562;18.414;2022-07-06T10:26:46;98470.91;;;23.80;100.00
68193;BME280;55012;47.562;18.414;2022-07-06T10:29:12;98419.88;;;23.94;100.00
68193;BME280;55012;47.562;18.414;2022-07-06T10:31:48;98571.03;;;23.93;100.00
68193;BME280;55012;47.562;18.414;2022-07-06T10:34:16;98851.28;;;23.92;100.00
68193;BME280;55012;47.562;18.414;2022-07-06T10:36:44;98829.38;;;24.10;100.00
68193;BME280;55012;47.562;18.414;2022-07-06T10:39:13;98963.34;;;24.19;100.00
68193;BME280;55012;47.562;18.414;2022-07-06T10:41:57;99057.31;;;24.19;100.00
68193;BME280;55012;47.562;18.414;2022-07-06T10:44:24;99213.41;;;24.14;100.00
68193;BME280;55012;47.562;18.414;2022-07-06T10:46:54;99247.16;;;24.22;100.00
68193;BME280;55012;47.562;18.414;2022-07-06T10:49:21;99281.88;;;24.23;100.00
68193;BME280;55012;47.562;18.414;2022-07-06T10:51:47;99340.69;;;24.23;100.00
68193;BME280;55012;47.562;18.414;2022-07-06T10:54:15;99343.84;;;24.25;100.00
68193;BME280;55012;47.562;18.414;2022-07-06T10:56:47;99310.09;;;24.30;100.00
68193;BME280;55012;47.562;18.414;2022-07-06T10:59:17;99321.28;;;24.27;100.00
68193;BME280;55012;47.562;18.414;2022-07-06T11:04:41;99250.81;;;24.19;100.00
68193;BME280;55012;47.562;18.414;2022-07-06T11:07:09;99216.50;;;24.16;100.00
68193;BME280;55012;47.562;18.414;2022-07-06T11:09:35;99216.66;;;24.25;100.00
68193;BME280;55012;47.562;18.414;2022-07-06T11:12:14;99215.00;;;24.28;100.00
68193;BME280;55012;47.562;18.414;2022-07-06T11:14:41;99219.28;;;24.45;100.00
68193;BME280;55012;47.562;18.414;2022-07-06T11:17:09;99214.75;;;24.64;100.00
68193;BME280;55012;47.562;18.414;2022-07-06T11:19:35;99232.13;;;24.64;100.00
68193;BME280;55012;47.562;18.414;2022-07-06T11:22:10;99194.44;;;24.58;100.00
68193;BME280;55012;47.562;18.414;2022-07-06T11:24:37;99216.41;;;24.49;100.00
68193;BME280;55012;47.562;18.414;2022-07-06T11:27:04;99234.22;;;24.48;100.00
68193;BME280;55012;47.562;18.414;2022-07-06T11:29:32;99191.28;;;24.43;100.00
68193;BME280;55012;47.562;18.414;2022-07-06T11:32:01;99240.88;;;24.50;100.00
68193;BME280;55012;47.562;18.414;2022-07-06T11:34:33;99237.97;;;24.41;100.00
68193;BME280;55012;47.562;18.414;2022-07-06T11:37:04;99230.91;;;24.65;100.00
68193;BME280;55012;47.562;18.414;2022-07-06T11:39:32;99244.16;;;25.00;100.00
68193;BME280;55012;47.562;18.414;2022-07-06T11:41:58;99255.53;;;24.89;100.00
68193;BME280;55012;47.562;18.414;2022-07-06T11:44:25;99256.63;;;24.79;100.00
68193;BME280;55012;47.562;18.414;2022-07-06T11:46:51;99262.47;;;24.81;100.00
68193;BME280;55012;47.562;18.414;2022-07-06T11:49:17;99234.16;;;24.77;100.00
68193;BME280;55012;47.562;18.414;2022-07-06T11:51:44;99230.06;;;24.81;100.00
68193;BME280;55012;47.562;18.414;2022-07-06T11:54:14;99251.88;;;24.79;100.00
68193;BME280;55012;47.562;18.414;2022-07-06T11:59:20;99231.59;;;24.82;100.00
68193;BME280;55012;47.562;18.414;2022-07-06T12:01:46;99287.19;;;24.88;100.00
68193;BME280;55012;47.562;18.414;2022-07-06T12:04:12;99298.16;;;24.91;100.00
68193;BME280;55012;47.562;18.414;2022-07-06T12:06:37;99313.41;;;24.83;100.00
68193;BME280;55012;47.562;18.414;2022-07-06T12:09:03;99283.84;;;24.80;100.00
68193;BME280;55012;47.562;18.414;2022-07-06T12:11:34;99244.66;;;24.69;100.00
68193;BME280;55012;47.562;18.414;2022-07-06T12:14:13;99274.78;;;24.80;100.00
68193;BME280;55012;47.562;18.414;2022-07-06T12:16:39;99279.22;;;24.90;100.00
68193;BME280;55012;47.562;18.414;2022-07-06T12:19:05;99359.38;;;24.93;100.00
68193;BME280;55012;47.562;18.414;2022-07-06T12:21:33;99296.38;;;24.98;100.00
68193;BME280;55012;47.562;18.414;2022-07-06T12:23:58;99327.97;;;25.13;100.00
68193;BME280;55012;47.562;18.414;2022-07-06T12:26:26;99301.31;;;25.19;100.00
68193;BME280;55012;47.562;18.414;2022-07-06T12:29:04;99303.84;;;25.13;100.00
68193;BME280;55012;47.562;18.414;2022-07-06T12:31:42;99300.28;;;25.00;100.00
68193;BME280;55012;47.562;18.414;2022-07-06T12:34:28;99272.75;;;25.09;100.00
68193;BME280;55012;47.562;18.414;2022-07-06T12:37:05;99297.56;;;25.26;100.00
68193;BME280;55012;47.562;18.414;2022-07-06T12:39:31;99277.81;;;25.36;100.00
68193;BME280;55012;47.562;18.414;2022-07-06T12:42:04;99281.16;;;25.44;100.00
68193;BME280;55012;47.562;18.414;2022-07-06T12:44:30;99310.25;;;25.48;100.00